Time;durP1;ratioP1;P1;durP2;ratioP2;P2;SDS_P1;SDS_P2;PMS_P1;PMS_P2;Temp;Humidity;BMP_temperature;BMP_pressure;BME280_temperature;BME280_humidity;BME280_pressure;Samples;Min_cycle;Max_cycle;Signal;HPM_P1;HPM_P2
2021/06/18 00:01:34;;;;;;;13.43;9.00;;;25.60;96.40;;;;;;4093100;28;20497;-84
2021/06/18 00:03:37;;;;;;;10.10;9.10;;;25.50;96.60;;;;;;4092795;28;20465;-84
2021/06/18 00:05:42;;;;;;;9.80;8.97;;;25.40;97.00;;;;;;4093250;28;20469;-83
2021/06/18 00:07:45;;;;;;;10.00;9.00;;;25.40;97.30;;;;;;4091383;28;20517;-84
2021/06/18 00:09:51;;;;;;;10.00;9.00;;;25.30;97.40;;;;;;4093857;29;20881;-84
2021/06/18 00:11:57;;;;;;;10.80;9.80;;;25.30;97.20;;;;;;4092750;28;20968;-84
2021/06/18 00:14:00;;;;;;;10.90;9.90;;;25.30;97.20;;;;;;4093075;28;20848;-84
2021/06/18 00:16:04;;;;;;;10.43;9.47;;;25.40;97.10;;;;;;4091762;28;20972;-83
2021/06/18 00:18:07;;;;;;;10.20;8.90;;;25.40;97.10;;;;;;4092773;28;20877;-83
2021/06/18 00:20:14;;;;;;;10.73;9.53;;;25.40;97.00;;;;;;4093672;29;20468;-83
2021/06/18 00:22:23;;;;;;;12.33;11.00;;;25.50;97.10;;;;;;4092400;28;21012;-83
2021/06/18 00:24:28;;;;;;;27.80;25.17;;;25.50;97.00;;;;;;4093126;28;20531;-83
2021/06/18 00:26:32;;;;;;;36.60;32.80;;;25.50;97.00;;;;;;4093541;28;21024;-84
2021/06/18 00:28:39;;;;;;;30.03;26.80;;;25.50;97.10;;;;;;4094094;28;21289;-84
2021/06/18 00:30:42;;;;;;;17.43;14.53;;;25.50;97.00;;;;;;4101547;28;20504;-84
2021/06/18 00:32:47;;;;;;;14.47;13.10;;;25.40;97.40;;;;;;4146109;28;21440;-84
2021/06/18 00:34:52;;;;;;;22.60;20.27;;;25.40;97.40;;;;;;4146004;28;20473;-84
2021/06/18 00:36:55;;;;;;;20.87;18.73;;;25.40;97.30;;;;;;4146243;28;20807;-85
2021/06/18 00:39:14;;;;;;;18.03;16.23;;;25.30;97.50;;;;;;4145181;28;20462;-84
2021/06/18 00:41:28;;;;;;;12.93;10.73;;;25.30;97.60;;;;;;4146429;28;20617;-84
2021/06/18 00:43:37;;;;;;;13.73;12.37;;;25.30;97.70;;;;;;4145776;28;20466;-85
2021/06/18 00:45:40;;;;;;;14.00;11.17;;;25.30;97.90;;;;;;4145265;28;20454;-83
2021/06/18 00:47:48;;;;;;;11.97;10.87;;;25.20;98.10;;;;;;4134440;28;20476;-84
2021/06/18 00:49:53;;;;;;;13.07;11.70;;;25.20;98.20;;;;;;4148350;28;20508;-84
2021/06/18 00:51:57;;;;;;;11.40;10.30;;;25.20;98.20;;;;;;4148790;28;20592;-83
2021/06/18 00:54:00;;;;;;;12.57;11.47;;;25.20;98.20;;;;;;4148515;28;20472;-83
2021/06/18 00:56:04;;;;;;;11.50;10.30;;;25.20;98.20;;;;;;4148533;28;20478;-83
2021/06/18 00:58:09;;;;;;;12.70;11.50;;;25.20;98.30;;;;;;4148354;28;20977;-83
2021/06/18 01:00:16;;;;;;;13.23;11.70;;;25.20;98.30;;;;;;4147271;28;20472;-84
2021/06/18 01:02:26;;;;;;;14.60;12.27;;;25.20;98.30;;;;;;4142791;28;20492;-84
2021/06/18 01:04:33;;;;;;;13.80;12.50;;;25.20;98.30;;;;;;4147805;28;20496;-84
2021/06/18 01:06:46;;;;;;;12.90;11.40;;;25.20;98.30;;;;;;4147390;28;20466;-84
2021/06/18 01:08:59;;;;;;;12.07;10.30;;;25.10;98.30;;;;;;4147597;28;20572;-83
2021/06/18 01:11:09;;;;;;;13.60;10.70;;;25.10;98.30;;;;;;4137954;28;20469;-83
2021/06/18 01:13:27;;;;;;;12.40;11.23;;;25.10;98.30;;;;;;4148656;28;20535;-83
2021/06/18 01:15:41;;;;;;;10.60;9.80;;;25.00;98.30;;;;;;4146241;28;20462;-84
2021/06/18 01:17:51;;;;;;;11.10;10.07;;;25.00;98.30;;;;;;4146814;28;20464;-84
2021/06/18 01:20:10;;;;;;;11.30;10.30;;;25.00;98.30;;;;;;4145447;28;20493;-84
2021/06/18 01:22:19;;;;;;;11.90;10.80;;;25.00;98.30;;;;;;4141871;28;20520;-84
2021/06/18 01:24:35;;;;;;;11.23;10.13;;;25.00;98.30;;;;;;4145787;28;20478;-84
2021/06/18 01:27:04;;;;;;;11.30;10.10;;;24.90;98.30;;;;;;4147331;28;20527;-84
2021/06/18 01:29:12;;;;;;;10.97;9.97;;;24.80;98.30;;;;;;4145049;28;21056;-84
2021/06/18 01:31:19;;;;;;;11.33;10.33;;;24.60;98.30;;;;;;4142858;28;20556;-84
2021/06/18 01:33:24;;;;;;;18.90;10.67;;;24.70;98.30;;;;;;4145060;28;20584;-83
2021/06/18 01:35:34;;;;;;;12.83;11.70;;;24.80;98.30;;;;;;4144974;28;20465;-83
2021/06/18 01:37:40;;;;;;;11.37;10.20;;;24.80;98.30;;;;;;4146797;28;20942;-83
2021/06/18 01:39:45;;;;;;;11.47;10.37;;;24.80;98.30;;;;;;4147425;28;20982;-83
2021/06/18 01:41:50;;;;;;;12.03;11.00;;;24.70;98.30;;;;;;4147094;28;20490;-83
2021/06/18 01:43:54;;;;;;;11.23;10.20;;;24.70;98.30;;;;;;4147193;28;20466;-83
2021/06/18 01:46:01;;;;;;;11.20;10.10;;;24.70;98.30;;;;;;4146126;28;20562;-84
2021/06/18 01:48:09;;;;;;;10.90;9.90;;;24.70;98.30;;;;;;4146734;28;20457;-83
2021/06/18 01:50:17;;;;;;;12.37;11.00;;;24.70;98.30;;;;;;4147052;28;20469;-83
2021/06/18 01:52:23;;;;;;;11.97;10.87;;;24.70;98.30;;;;;;4146721;28;20495;-83
2021/06/18 01:54:27;;;;;;;11.10;9.93;;;24.60;98.30;;;;;;4146069;28;20876;-83
2021/06/18 01:56:33;;;;;;;10.70;9.80;;;24.60;98.30;;;;;;4146194;28;20465;-84
2021/06/18 01:58:36;;;;;;;11.37;9.90;;;24.60;98.30;;;;;;4140450;28;20529;-83
2021/06/18 02:00:43;;;;;;;11.20;10.30;;;24.60;98.30;;;;;;4145777;28;20520;-83
2021/06/18 02:02:49;;;;;;;11.07;10.13;;;24.60;98.30;;;;;;4146595;28;20500;-84
2021/06/18 02:04:54;;;;;;;10.73;9.67;;;24.60;98.30;;;;;;4146956;28;20848;-84
2021/06/18 02:06:58;;;;;;;11.77;10.57;;;24.60;98.30;;;;;;4147303;28;20497;-83
2021/06/18 02:09:07;;;;;;;11.27;10.27;;;24.60;98.30;;;;;;4146670;28;20494;-84
2021/06/18 02:11:11;;;;;;;11.87;10.47;;;24.60;98.30;;;;;;4143072;28;21072;-83
2021/06/18 02:13:15;;;;;;;10.90;9.87;;;24.60;98.30;;;;;;4146858;28;20489;-84
2021/06/18 02:15:19;;;;;;;15.93;10.70;;;24.60;98.30;;;;;;4145909;28;20553;-83
2021/06/18 02:17:23;;;;;;;11.60;10.50;;;24.60;98.30;;;;;;4143310;28;20470;-84
2021/06/18 02:19:32;;;;;;;11.50;10.43;;;24.50;98.30;;;;;;4147262;28;20984;-83
2021/06/18 02:21:36;;;;;;;26.93;24.37;;;24.30;98.30;;;;;;4144003;28;20481;-83
2021/06/18 02:23:41;;;;;;;32.83;29.60;;;24.20;98.30;;;;;;4146906;28;20481;-83
2021/06/18 02:25:46;;;;;;;44.60;39.70;;;24.20;98.30;;;;;;4147054;28;20470;-83
2021/06/18 02:27:51;;;;;;;24.90;22.40;;;24.10;98.30;;;;;;4145822;28;20520;-84
2021/06/18 02:29:54;;;;;;;23.53;20.00;;;24.10;98.30;;;;;;4136970;28;20493;-83
2021/06/18 02:36:36;;;;;;;21.80;18.73;;;24.20;98.30;;;;;;4581972;22;20524;-84
2021/06/18 03:14:18;;;;;;;16.53;15.03;;;24.10;98.30;;;;;;4143046;28;20500;-84
2021/06/18 03:16:24;;;;;;;26.27;22.73;;;24.10;98.30;;;;;;4162689;28;20464;-83
2021/06/18 03:18:29;;;;;;;26.23;23.43;;;24.10;98.30;;;;;;4146612;28;20470;-84
2021/06/18 03:20:35;;;;;;;37.87;33.87;;;24.10;98.30;;;;;;4156777;28;20467;-85
2021/06/18 03:22:39;;;;;;;27.73;24.90;;;24.10;98.30;;;;;;4159917;28;20578;-84
2021/06/18 03:24:48;;;;;;;23.80;21.40;;;24.10;98.30;;;;;;4160140;28;20536;-86
2021/06/18 03:26:51;;;;;;;26.43;23.73;;;24.10;98.30;;;;;;4155426;28;20470;-85
2021/06/18 03:28:55;;;;;;;19.27;17.37;;;24.10;98.30;;;;;;4162207;28;20571;-84
2021/06/18 03:31:01;;;;;;;19.33;17.20;;;24.00;98.30;;;;;;4176488;28;20465;-85
2021/06/18 03:33:05;;;;;;;18.77;16.70;;;24.10;98.30;;;;;;4180638;28;20465;-84
2021/06/18 03:35:09;;;;;;;17.57;15.53;;;24.10;98.30;;;;;;4179867;28;20540;-84
2021/06/18 03:37:12;;;;;;;17.07;15.57;;;24.10;98.30;;;;;;4181313;28;20521;-83
2021/06/18 03:39:15;;;;;;;18.23;16.33;;;24.10;98.30;;;;;;4179721;28;20547;-84
2021/06/18 03:41:20;;;;;;;15.70;14.13;;;24.10;98.30;;;;;;4181831;28;20560;-84
2021/06/18 03:43:24;;;;;;;17.63;15.90;;;24.10;98.30;;;;;;4180652;28;20471;-84
2021/06/18 03:45:27;;;;;;;18.37;16.60;;;24.10;98.30;;;;;;4168073;28;20991;-84
2021/06/18 03:47:33;;;;;;;16.70;15.20;;;24.10;98.30;;;;;;4159204;28;20487;-85
2021/06/18 03:49:37;;;;;;;17.30;15.13;;;24.10;98.30;;;;;;4159398;28;20491;-85
2021/06/18 03:51:40;;;;;;;18.00;16.17;;;24.10;98.30;;;;;;4160898;28;20488;-84
2021/06/18 03:53:43;;;;;;;19.03;16.77;;;24.10;98.30;;;;;;4161074;28;20580;-84
2021/06/18 03:55:47;;;;;;;15.03;13.73;;;24.10;98.30;;;;;;4160826;28;20522;-85
2021/06/18 03:57:52;;;;;;;17.30;15.63;;;24.10;98.30;;;;;;4158708;28;20488;-85
2021/06/18 03:59:57;;;;;;;14.77;13.37;;;24.10;98.30;;;;;;4160417;28;20544;-85
2021/06/18 04:02:01;;;;;;;16.27;14.63;;;24.20;98.30;;;;;;4159210;28;21049;-85
2021/06/18 04:04:07;;;;;;;19.07;15.70;;;24.20;98.30;;;;;;4161293;28;20564;-85
2021/06/18 04:06:10;;;;;;;25.97;21.40;;;24.20;98.30;;;;;;4163400;28;20470;-85
2021/06/18 04:08:16;;;;;;;57.67;49.27;;;24.20;98.30;;;;;;4163812;28;20711;-84
2021/06/18 04:10:19;;;;;;;34.90;30.10;;;24.20;98.30;;;;;;4165499;28;20486;-84
2021/06/18 04:12:23;;;;;;;22.93;20.70;;;24.20;98.30;;;;;;4160962;28;20544;-85
2021/06/18 04:14:27;;;;;;;20.90;18.90;;;24.30;98.30;;;;;;4157297;28;20468;-85
2021/06/18 04:16:30;;;;;;;21.27;19.13;;;24.30;98.30;;;;;;4162427;28;20465;-85
2021/06/18 04:18:35;;;;;;;17.00;15.47;;;24.30;98.30;;;;;;4161861;28;21059;-85
2021/06/18 04:20:40;;;;;;;16.47;14.80;;;24.30;98.30;;;;;;4160315;28;20544;-85
2021/06/18 04:22:43;;;;;;;15.93;14.33;;;24.30;98.30;;;;;;4161659;28;20489;-85
2021/06/18 04:24:46;;;;;;;17.37;15.57;;;24.30;98.30;;;;;;4160672;28;20478;-85
2021/06/18 04:26:49;;;;;;;18.40;16.63;;;24.30;98.30;;;;;;4162959;28;20468;-85
2021/06/18 04:28:53;;;;;;;19.40;17.60;;;24.30;98.30;;;;;;4161841;28;20793;-85
2021/06/18 04:30:56;;;;;;;43.40;35.90;;;24.40;98.30;;;;;;4162032;28;20862;-85
2021/06/18 04:33:00;;;;;;;55.80;49.40;;;24.40;98.30;;;;;;4161088;28;20489;-85
2021/06/18 04:35:03;;;;;;;28.23;25.30;;;24.40;98.30;;;;;;4162076;28;20572;-85
2021/06/18 04:37:08;;;;;;;31.57;28.00;;;24.40;98.30;;;;;;4163034;28;20473;-85
2021/06/18 04:39:11;;;;;;;36.43;32.53;;;24.50;98.30;;;;;;4160714;28;20461;-85
2021/06/18 04:41:15;;;;;;;25.50;19.87;;;24.50;98.30;;;;;;4162814;28;20461;-85
2021/06/18 04:43:18;;;;;;;27.60;24.70;;;24.50;98.30;;;;;;4162810;28;20487;-85
2021/06/18 04:45:21;;;;;;;17.60;15.80;;;24.60;98.30;;;;;;4162700;28;20480;-85
2021/06/18 04:47:24;;;;;;;26.03;20.57;;;24.50;98.30;;;;;;4161282;28;20575;-85
2021/06/18 04:49:28;;;;;;;27.53;24.63;;;24.50;98.30;;;;;;4160663;28;20504;-85
2021/06/18 04:51:31;;;;;;;35.87;29.83;;;24.50;98.30;;;;;;4162558;28;20591;-85
2021/06/18 04:53:35;;;;;;;28.60;25.63;;;24.50;98.30;;;;;;4162273;28;20566;-85
2021/06/18 04:55:40;;;;;;;20.37;16.00;;;24.50;98.30;;;;;;4162946;28;20859;-84
2021/06/18 04:57:46;;;;;;;16.60;15.00;;;24.60;98.30;;;;;;4157984;28;20460;-85
2021/06/18 04:59:49;;;;;;;14.70;13.40;;;24.50;98.30;;;;;;4158202;28;20600;-85
2021/06/18 05:01:52;;;;;;;15.10;13.80;;;24.50;98.30;;;;;;4161525;28;21036;-85
2021/06/18 05:03:55;;;;;;;15.43;13.83;;;24.70;98.30;;;;;;4159467;28;21116;-84
2021/06/18 05:05:58;;;;;;;15.40;13.80;;;24.70;98.30;;;;;;4162432;28;20556;-85
2021/06/18 05:08:01;;;;;;;14.20;12.80;;;24.60;98.30;;;;;;4162098;28;20490;-85
2021/06/18 05:10:07;;;;;;;13.27;12.20;;;24.60;98.30;;;;;;4162223;28;20492;-85
2021/06/18 05:12:11;;;;;;;14.00;12.53;;;24.60;98.30;;;;;;4160939;28;20995;-85
2021/06/18 05:14:14;;;;;;;16.80;15.30;;;24.70;98.30;;;;;;4160699;28;20815;-85
2021/06/18 05:16:17;;;;;;;19.67;13.50;;;24.80;98.30;;;;;;4161743;28;20472;-85
2021/06/18 05:18:20;;;;;;;17.73;15.83;;;24.70;98.30;;;;;;4161600;28;20499;-85
2021/06/18 05:20:23;;;;;;;16.23;14.53;;;24.80;98.30;;;;;;4158488;28;20476;-84
2021/06/18 05:22:26;;;;;;;17.00;13.37;;;24.80;98.30;;;;;;4158487;28;20521;-84
2021/06/18 05:24:29;;;;;;;14.90;13.47;;;24.90;98.30;;;;;;4153334;28;20992;-84
2021/06/18 05:26:35;;;;;;;14.77;13.37;;;24.80;98.30;;;;;;4163477;28;20827;-85
2021/06/18 05:28:38;;;;;;;19.67;16.50;;;24.90;98.30;;;;;;4160938;28;20511;-84
2021/06/18 05:30:41;;;;;;;15.13;13.60;;;25.00;98.30;;;;;;4162802;28;20587;-85
2021/06/18 05:32:45;;;;;;;13.70;12.00;;;25.00;98.30;;;;;;4160242;28;20489;-85
2021/06/18 05:34:48;;;;;;;13.70;12.60;;;25.00;98.30;;;;;;4162663;28;20487;-85
2021/06/18 05:36:51;;;;;;;14.93;13.43;;;24.90;98.30;;;;;;4161477;28;20978;-86
2021/06/18 05:38:54;;;;;;;14.83;13.43;;;25.00;98.30;;;;;;4161493;28;20465;-84
2021/06/18 05:40:58;;;;;;;14.70;13.20;;;25.00;98.30;;;;;;4162412;28;20546;-84
2021/06/18 05:43:03;;;;;;;15.00;13.70;;;25.00;98.30;;;;;;4162034;28;20473;-81
2021/06/18 05:45:07;;;;;;;13.60;12.37;;;25.10;98.30;;;;;;4165388;28;20563;-81
2021/06/18 05:47:10;;;;;;;14.33;12.23;;;25.10;98.30;;;;;;4163663;28;20479;-82
2021/06/18 05:49:13;;;;;;;13.43;12.13;;;25.20;98.30;;;;;;4162117;28;20469;-82
2021/06/18 05:51:16;;;;;;;12.20;11.30;;;25.20;98.30;;;;;;4162656;28;20988;-82
2021/06/18 05:53:19;;;;;;;14.80;13.30;;;25.30;98.30;;;;;;4162148;28;20489;-82
2021/06/18 05:55:23;;;;;;;13.47;12.23;;;25.30;98.30;;;;;;4162399;28;20940;-82
2021/06/18 05:57:26;;;;;;;12.20;10.80;;;25.30;96.50;;;;;;4163055;28;20506;-82
2021/06/18 05:59:30;;;;;;;12.90;11.57;;;25.20;96.50;;;;;;4163257;28;20569;-81
2021/06/18 06:01:33;;;;;;;12.73;11.33;;;25.30;96.40;;;;;;4163339;28;20493;-82
2021/06/18 06:03:36;;;;;;;12.43;11.20;;;25.30;96.10;;;;;;4163063;28;20461;-82
2021/06/18 06:05:39;;;;;;;14.23;12.13;;;25.20;96.80;;;;;;4162780;28;20475;-82
2021/06/18 06:07:46;;;;;;;13.07;11.67;;;25.20;97.00;;;;;;4162691;28;20508;-82
2021/06/18 06:09:49;;;;;;;11.87;10.97;;;25.30;96.40;;;;;;4164229;28;20572;-81
2021/06/18 06:11:51;;;;;;;13.40;12.10;;;25.40;96.20;;;;;;4164442;28;20830;-81
2021/06/18 06:14:00;;;;;;;13.23;11.00;;;25.40;96.90;;;;;;4164254;28;20515;-82
2021/06/18 06:16:05;;;;;;;31.00;27.93;;;25.40;96.90;;;;;;4164877;28;20808;-81
2021/06/18 06:18:08;;;;;;;79.57;71.43;;;25.60;96.80;;;;;;4163257;28;20527;-81
2021/06/18 06:20:15;;;;;;;42.93;38.43;;;25.70;96.90;;;;;;4163700;28;20472;-82
2021/06/18 06:22:19;;;;;;;16.97;15.30;;;25.80;96.10;;;;;;4162745;28;20489;-84
2021/06/18 06:24:22;;;;;;;13.13;11.77;;;25.80;95.80;;;;;;4159753;28;20520;-85
2021/06/18 06:26:25;;;;;;;13.33;11.97;;;25.80;95.00;;;;;;4159173;28;20548;-85
2021/06/18 06:28:29;;;;;;;12.60;11.60;;;25.70;95.20;;;;;;4160809;28;20500;-84
2021/06/18 06:30:32;;;;;;;14.83;11.30;;;25.80;94.90;;;;;;4158597;28;20480;-84
2021/06/18 06:32:36;;;;;;;12.27;11.07;;;25.80;94.60;;;;;;4161700;28;21014;-84
2021/06/18 06:34:40;;;;;;;14.23;11.30;;;25.90;94.00;;;;;;4162920;28;20568;-85
2021/06/18 06:36:42;;;;;;;13.00;11.80;;;25.80;93.60;;;;;;4146622;28;20458;-85
2021/06/18 06:38:45;;;;;;;12.37;11.47;;;25.90;93.30;;;;;;4152838;28;20556;-84
2021/06/18 06:40:49;;;;;;;11.87;10.90;;;25.90;93.70;;;;;;4161551;28;20560;-83
2021/06/18 06:42:53;;;;;;;13.93;12.73;;;25.80;94.40;;;;;;4161236;28;20513;-84
2021/06/18 06:44:56;;;;;;;11.93;10.73;;;25.90;95.10;;;;;;4161280;28;20477;-84
2021/06/18 06:46:59;;;;;;;29.57;26.67;;;25.90;94.10;;;;;;4152837;28;20866;-84
2021/06/18 06:49:04;;;;;;;12.70;11.57;;;26.00;94.90;;;;;;4160414;28;20990;-84
2021/06/18 06:51:07;;;;;;;13.13;11.43;;;26.00;94.60;;;;;;4161514;28;20468;-85
2021/06/18 06:53:10;;;;;;;12.50;11.40;;;26.00;94.60;;;;;;4161308;28;20489;-84
2021/06/18 06:55:13;;;;;;;12.83;11.50;;;26.00;94.30;;;;;;4148687;28;20466;-85
2021/06/18 06:57:18;;;;;;;12.00;10.90;;;26.10;94.50;;;;;;4162629;28;20468;-84
2021/06/18 06:59:21;;;;;;;13.10;11.70;;;26.30;94.10;;;;;;4162422;28;20904;-84
2021/06/18 07:01:24;;;;;;;13.30;12.10;;;26.30;93.90;;;;;;4150978;28;20465;-84
2021/06/18 07:03:28;;;;;;;12.23;11.23;;;26.30;93.90;;;;;;4162577;28;20534;-84
2021/06/18 07:05:32;;;;;;;12.30;11.20;;;26.30;93.20;;;;;;4162244;28;20499;-84
2021/06/18 07:07:36;;;;;;;13.00;11.90;;;26.30;93.20;;;;;;4160505;28;20473;-85
2021/06/18 07:09:39;;;;;;;11.87;10.90;;;26.50;93.20;;;;;;4162491;28;20481;-84
2021/06/18 07:11:45;;;;;;;11.60;10.63;;;26.50;93.80;;;;;;4162302;28;20501;-85
2021/06/18 07:13:48;;;;;;;12.20;11.00;;;26.50;94.10;;;;;;4159443;28;20479;-84
2021/06/18 07:15:51;;;;;;;12.20;11.10;;;26.60;93.40;;;;;;4162329;28;20476;-85
2021/06/18 07:17:56;;;;;;;11.70;10.60;;;26.70;92.10;;;;;;4162066;28;21109;-84
2021/06/18 07:20:01;;;;;;;12.40;11.40;;;26.80;92.50;;;;;;4162137;28;20479;-85
2021/06/18 07:22:07;;;;;;;11.73;10.80;;;26.90;91.90;;;;;;4162397;28;20976;-84
2021/06/18 07:24:10;;;;;;;12.03;11.03;;;27.00;90.80;;;;;;4156529;28;20475;-84
2021/06/18 07:26:13;;;;;;;12.33;11.20;;;27.10;90.90;;;;;;4161905;28;20476;-85
2021/06/18 07:28:16;;;;;;;13.27;12.00;;;27.20;90.90;;;;;;4160750;28;20464;-85
2021/06/18 07:30:20;;;;;;;13.37;12.03;;;27.40;90.80;;;;;;4145670;28;20557;-84
2021/06/18 07:32:24;;;;;;;12.63;11.50;;;27.50;90.30;;;;;;4156213;28;20495;-84
2021/06/18 07:34:27;;;;;;;12.43;11.20;;;27.60;89.50;;;;;;4162210;28;21027;-85
2021/06/18 07:36:30;;;;;;;12.10;10.90;;;27.60;89.40;;;;;;4145948;28;20565;-84
2021/06/18 07:38:34;;;;;;;13.07;11.97;;;27.60;89.30;;;;;;4164938;28;20464;-85
2021/06/18 07:40:37;;;;;;;12.20;10.93;;;27.60;89.30;;;;;;4153025;28;20555;-84
2021/06/18 07:42:41;;;;;;;11.87;10.63;;;27.60;88.00;;;;;;4163186;28;20477;-85
2021/06/18 07:44:43;;;;;;;12.53;11.47;;;27.70;88.70;;;;;;4149265;28;20600;-85
2021/06/18 07:46:46;;;;;;;14.27;11.90;;;27.80;89.10;;;;;;4155189;28;20469;-85
2021/06/18 07:48:49;;;;;;;13.13;11.83;;;28.00;88.80;;;;;;4163447;28;20498;-85
2021/06/18 07:50:52;;;;;;;14.80;13.30;;;28.20;88.50;;;;;;4160703;28;20532;-84
2021/06/18 07:52:56;;;;;;;12.90;11.77;;;28.30;88.00;;;;;;4165792;28;20591;-84
2021/06/18 07:55:01;;;;;;;12.87;11.87;;;28.30;87.80;;;;;;4172928;28;20629;-85
2021/06/18 07:57:04;;;;;;;13.37;12.20;;;28.40;87.60;;;;;;4185779;28;20564;-84
2021/06/18 07:59:07;;;;;;;12.70;11.70;;;28.50;88.00;;;;;;4185005;28;20453;-84
2021/06/18 08:01:10;;;;;;;12.37;11.27;;;28.80;87.60;;;;;;4184358;28;20520;-83
2021/06/18 08:03:13;;;;;;;12.47;11.47;;;28.80;86.90;;;;;;4185305;28;20472;-83
2021/06/18 08:05:17;;;;;;;20.10;18.20;;;28.90;86.50;;;;;;4185119;28;20469;-82
2021/06/18 08:07:22;;;;;;;31.33;27.53;;;29.00;86.20;;;;;;4185189;28;20449;-83
2021/06/18 08:09:25;;;;;;;18.40;16.70;;;29.20;85.60;;;;;;4175549;28;20558;-84
2021/06/18 08:11:29;;;;;;;13.97;12.57;;;29.20;85.50;;;;;;4165519;28;20512;-84
2021/06/18 08:13:32;;;;;;;13.50;12.30;;;29.40;85.50;;;;;;4159980;28;21062;-85
2021/06/18 08:15:35;;;;;;;12.27;11.20;;;29.50;85.50;;;;;;4165303;28;20507;-84
2021/06/18 08:17:38;;;;;;;13.10;11.90;;;29.50;83.60;;;;;;4164997;28;20491;-85
2021/06/18 08:19:44;;;;;;;13.07;11.87;;;29.40;83.50;;;;;;4165065;28;20475;-84
2021/06/18 08:21:47;;;;;;;12.33;11.23;;;29.30;84.00;;;;;;4165083;28;20485;-85
2021/06/18 08:23:50;;;;;;;12.13;10.80;;;29.40;84.80;;;;;;4164779;28;20477;-84
2021/06/18 08:25:53;;;;;;;12.57;11.43;;;29.40;85.50;;;;;;4165042;28;20479;-85
2021/06/18 08:27:57;;;;;;;13.30;12.20;;;29.60;84.70;;;;;;4157986;28;20461;-85
2021/06/18 08:30:00;;;;;;;13.33;12.03;;;29.70;84.90;;;;;;4163225;28;20508;-84
2021/06/18 08:32:24;;;;;;;11.87;10.90;;;29.80;84.40;;;;;;4170323;28;20492;-85
2021/06/18 08:34:27;;;;;;;12.73;11.47;;;29.90;84.50;;;;;;4165319;28;20465;-85
2021/06/18 08:36:30;;;;;;;12.73;11.63;;;30.10;83.00;;;;;;4165950;28;20870;-85
2021/06/18 08:38:36;;;;;;;12.50;11.50;;;30.20;81.90;;;;;;4166054;28;20496;-85
2021/06/18 08:40:39;;;;;;;13.03;11.83;;;30.40;81.60;;;;;;4165737;28;20457;-84
2021/06/18 08:42:43;;;;;;;12.57;11.57;;;30.40;81.40;;;;;;4167172;28;20484;-85
2021/06/18 08:44:47;;;;;;;12.00;10.93;;;30.50;81.40;;;;;;4167286;28;20975;-85
2021/06/18 08:46:50;;;;;;;12.20;11.10;;;30.70;81.30;;;;;;4165696;28;20479;-86
2021/06/18 08:48:53;;;;;;;23.17;20.70;;;30.70;81.40;;;;;;4164729;28;20556;-86
2021/06/18 08:50:57;;;;;;;17.30;15.63;;;30.80;81.70;;;;;;4165317;28;20545;-85
2021/06/18 08:53:01;;;;;;;20.43;18.53;;;30.80;80.20;;;;;;4165351;28;20497;-85
2021/06/18 08:55:06;;;;;;;15.63;14.20;;;30.90;80.90;;;;;;4149292;28;20491;-85
2021/06/18 08:57:10;;;;;;;12.93;11.93;;;31.10;80.30;;;;;;4151547;28;20553;-86
2021/06/18 08:59:13;;;;;;;13.00;11.90;;;31.10;79.70;;;;;;4164327;28;20465;-85
2021/06/18 09:01:18;;;;;;;13.07;11.83;;;31.20;79.90;;;;;;4156907;28;20466;-85
2021/06/18 09:03:39;;;;;;;13.17;12.03;;;31.30;79.80;;;;;;4163822;28;20531;-85
2021/06/18 09:05:41;;;;;;;13.33;11.93;;;31.50;78.30;;;;;;4163141;28;21018;-85
2021/06/18 09:07:52;;;;;;;13.47;12.40;;;31.50;78.10;;;;;;4163590;28;20480;-85
2021/06/18 09:09:56;;;;;;;12.67;11.63;;;31.50;78.60;;;;;;4163037;28;20473;-86
2021/06/18 09:12:01;;;;;;;11.43;10.47;;;31.60;78.50;;;;;;4163471;28;21030;-85
2021/06/18 09:14:18;;;;;;;11.17;10.27;;;31.40;78.40;;;;;;4163734;28;20489;-86
2021/06/18 09:16:24;;;;;;;11.50;10.50;;;31.40;78.90;;;;;;4163463;28;20469;-85
2021/06/18 09:18:33;;;;;;;12.73;11.63;;;31.50;78.50;;;;;;4163376;28;20468;-85
2021/06/18 09:20:37;;;;;;;13.47;11.83;;;31.60;78.60;;;;;;4163051;28;20825;-85
2021/06/18 09:22:41;;;;;;;12.23;10.37;;;31.80;78.30;;;;;;4163064;28;20485;-85
2021/06/18 09:24:48;;;;;;;10.90;10.00;;;31.80;78.30;;;;;;4163145;28;20494;-85
2021/06/18 09:26:51;;;;;;;10.90;9.90;;;32.00;77.20;;;;;;4163420;28;20471;-86
2021/06/18 09:29:07;;;;;;;10.77;9.63;;;32.10;76.90;;;;;;4163467;28;20468;-85
2021/06/18 09:31:10;;;;;;;12.40;10.20;;;32.30;76.40;;;;;;4163177;28;20523;-85
2021/06/18 09:33:23;;;;;;;11.20;10.30;;;32.40;75.80;;;;;;4162794;28;20546;-85
2021/06/18 09:35:27;;;;;;;13.57;11.97;;;32.50;75.40;;;;;;4162002;28;20474;-86
2021/06/18 09:37:33;;;;;;;11.23;10.33;;;32.70;75.70;;;;;;4163333;28;20469;-86
2021/06/18 09:40:06;;;;;;;11.70;10.70;;;32.80;75.40;;;;;;4163251;28;20478;-86
2021/06/18 09:42:12;;;;;;;11.60;10.60;;;32.90;76.60;;;;;;4163108;28;20987;-86
2021/06/18 09:44:18;;;;;;;11.60;10.10;;;32.90;76.20;;;;;;4163264;28;20499;-85
2021/06/18 09:46:39;;;;;;;11.47;10.37;;;32.90;76.20;;;;;;4161694;28;20466;-86
2021/06/18 09:48:44;;;;;;;12.23;11.00;;;32.90;75.70;;;;;;4162307;28;20495;-85
2021/06/18 09:50:49;;;;;;;18.40;16.90;;;33.00;76.10;;;;;;4162017;28;20464;-85
2021/06/18 09:52:52;;;;;;;21.27;19.37;;;33.10;76.20;;;;;;4163149;28;20485;-85
2021/06/18 09:54:56;;;;;;;23.33;20.93;;;33.30;76.60;;;;;;4162254;28;20851;-87
2021/06/18 09:57:07;;;;;;;20.00;18.13;;;33.40;75.80;;;;;;4162434;28;20479;-85
2021/06/18 09:59:21;;;;;;;12.73;11.53;;;33.40;75.20;;;;;;4162464;28;20595;-86
2021/06/18 10:01:28;;;;;;;12.90;11.90;;;33.40;75.40;;;;;;4161165;28;20507;-85
2021/06/18 10:03:32;;;;;;;13.70;12.37;;;33.50;74.60;;;;;;4163015;28;20460;-86
2021/06/18 10:05:39;;;;;;;13.67;12.57;;;33.60;74.60;;;;;;4162922;28;20476;-85
2021/06/18 10:07:43;;;;;;;13.67;12.57;;;33.80;74.00;;;;;;4161254;28;20480;-85
2021/06/18 10:09:47;;;;;;;12.93;11.60;;;33.80;73.90;;;;;;4162784;28;20900;-85
2021/06/18 10:11:52;;;;;;;12.13;11.13;;;33.90;73.80;;;;;;4161252;28;20500;-85
2021/06/18 10:13:57;;;;;;;13.80;12.60;;;34.00;73.80;;;;;;4161395;28;20595;-86
2021/06/18 10:16:00;;;;;;;11.20;10.23;;;34.30;74.30;;;;;;4163177;28;21022;-85
2021/06/18 10:18:09;;;;;;;11.07;10.03;;;34.30;74.00;;;;;;4162606;28;20497;-86
2021/06/18 10:20:14;;;;;;;11.00;10.10;;;34.20;73.30;;;;;;4162176;28;20468;-86
2021/06/18 10:22:23;;;;;;;11.07;10.20;;;34.10;73.70;;;;;;4162418;28;20494;-86
2021/06/18 10:24:37;;;;;;;11.60;10.70;;;33.90;73.20;;;;;;4161106;28;20534;-85
2021/06/18 10:26:41;;;;;;;10.50;9.73;;;33.70;73.60;;;;;;4162745;28;20469;-85
2021/06/18 10:28:54;;;;;;;10.80;9.73;;;33.80;73.10;;;;;;4160905;28;20468;-85
2021/06/18 10:30:59;;;;;;;11.20;10.10;;;33.80;73.20;;;;;;4161624;28;20495;-85
2021/06/18 10:33:32;;;;;;;11.00;10.10;;;33.80;73.30;;;;;;4161588;28;20480;-85
2021/06/18 10:35:49;;;;;;;14.30;12.93;;;33.90;73.10;;;;;;4161748;28;20468;-85
2021/06/18 10:37:58;;;;;;;19.40;17.70;;;33.90;73.30;;;;;;4161885;28;20518;-85
2021/06/18 10:40:11;;;;;;;10.80;9.80;;;34.20;72.30;;;;;;4160931;28;20490;-86
2021/06/18 10:42:16;;;;;;;11.77;10.77;;;34.30;71.90;;;;;;4161466;28;21421;-85
2021/06/18 10:44:45;;;;;;;11.63;10.83;;;34.40;72.00;;;;;;4160890;28;20987;-85
2021/06/18 10:46:49;;;;;;;13.70;12.60;;;34.60;72.60;;;;;;4162961;28;20504;-85
2021/06/18 10:49:00;;;;;;;12.27;11.00;;;34.90;72.00;;;;;;4162948;28;20464;-87
2021/06/18 10:51:03;;;;;;;15.03;13.73;;;35.00;71.90;;;;;;4163404;28;20972;-85
2021/06/18 10:53:23;;;;;;;13.15;12.13;;;35.30;71.70;;;;;;4162796;28;20587;-85
2021/06/18 10:55:48;;;;;;;12.10;11.10;;;35.50;71.90;;;;;;4160183;28;20464;-85
2021/06/18 10:57:53;;;;;;;11.15;10.15;;;35.80;72.00;;;;;;4146603;28;20473;-85
2021/06/18 10:59:57;;;;;;;14.75;10.95;;;36.00;70.60;;;;;;4161978;28;20518;-86
2021/06/18 11:02:02;;;;;;;11.38;10.43;;;36.20;71.20;;;;;;4163600;28;20843;-85
2021/06/18 11:04:07;;;;;;;11.48;10.48;;;36.20;71.40;;;;;;4163197;28;20492;-85
2021/06/18 11:06:47;;;;;;;10.38;9.48;;;36.30;70.40;;;;;;4147012;28;20902;-85
2021/06/18 11:08:52;;;;;;;10.80;9.93;;;36.50;71.10;;;;;;4146978;28;20836;-86
2021/06/18 11:11:00;;;;;;;11.77;9.68;;;36.70;71.30;;;;;;4161277;28;20205;-86
2021/06/18 11:13:07;;;;;;;10.63;9.82;;;36.90;70.70;;;;;;4162843;28;20223;-85
2021/06/18 11:15:51;;;;;;;11.13;10.23;;;37.30;70.20;;;;;;4146553;28;20195;-85
2021/06/18 11:18:01;;;;;;;16.00;14.70;;;37.30;69.40;;;;;;4161867;28;20213;-85
2021/06/18 11:20:06;;;;;;;16.50;15.32;;;37.30;69.60;;;;;;4160219;28;20236;-85